createdAt,value
2018-07-06T07:21:22.597Z,51.80
2018-07-06T07:23:53.782Z,52.80
2018-07-06T07:26:28.599Z,53.50
2018-07-06T07:29:05.351Z,54.10
2018-07-06T08:00:52.352Z,56.30
2018-07-06T08:03:22.265Z,55.80
2018-07-06T08:05:51.618Z,56.00
2018-07-06T08:08:21.042Z,56.20
2018-07-06T08:10:50.291Z,56.00
2018-07-06T08:13:19.312Z,56.30
2018-07-06T08:15:49.157Z,56.30
2018-07-06T08:18:17.910Z,57.40
2018-07-06T08:20:46.919Z,56.60
2018-07-06T08:23:15.646Z,56.60
2018-07-06T08:25:44.380Z,56.70
2018-07-06T08:28:13.080Z,56.60
2018-07-06T08:30:41.860Z,57.00
2018-07-06T08:33:10.880Z,56.90
2018-07-06T08:35:50.886Z,56.00
2018-07-06T08:38:20.571Z,55.80
2018-07-06T08:40:49.279Z,56.20
2018-07-06T08:43:17.987Z,55.20
2018-07-06T08:45:47.046Z,55.50
2018-07-06T08:48:15.768Z,55.50
2018-07-06T08:50:44.475Z,55.80
2018-07-06T08:53:13.178Z,56.40
2018-07-06T08:55:42.543Z,55.50
2018-07-06T08:58:11.274Z,55.10
2018-07-06T09:00:39.955Z,54.70
2018-07-06T09:03:08.671Z,54.20
2018-07-06T09:05:37.386Z,54.60
2018-07-06T09:08:06.082Z,55.10
2018-07-06T09:10:34.779Z,54.90
2018-07-06T09:13:03.696Z,54.60
2018-07-06T09:15:32.425Z,54.60
2018-07-06T09:18:01.181Z,55.10
2018-07-06T09:20:29.968Z,55.10
2018-07-06T09:22:58.731Z,55.30
2018-07-06T09:25:27.668Z,54.60
2018-07-06T09:27:56.393Z,53.60
2018-07-06T09:30:25.114Z,54.40
2018-07-06T09:32:53.836Z,53.90
2018-07-06T09:35:22.550Z,54.40
2018-07-06T09:37:51.669Z,54.50
2018-07-06T09:40:20.495Z,53.70
2018-07-06T09:42:49.296Z,54.70
2018-07-06T09:45:18.658Z,53.90
2018-07-06T09:47:48.624Z,53.20
2018-07-06T09:50:17.701Z,53.10
2018-07-06T09:52:49.823Z,53.70
2018-07-06T09:55:19.011Z,53.40
2018-07-06T09:57:48.247Z,51.90
2018-07-06T10:00:22.559Z,51.90
2018-07-06T10:02:51.907Z,52.60
2018-07-06T10:07:59.814Z,51.70
2018-07-06T10:10:30.779Z,50.40
2018-07-06T10:13:01.339Z,50.10
2018-07-06T10:15:30.501Z,50.20
2018-07-06T10:17:59.798Z,50.20
2018-07-06T10:20:29.705Z,50.10
2018-07-06T10:22:58.560Z,49.50
2018-07-06T10:25:27.533Z,49.20
2018-07-06T10:28:06.095Z,49.00
2018-07-06T10:31:04.535Z,49.70
2018-07-06T10:33:33.333Z,49.20
2018-07-06T10:36:02.210Z,47.20
2018-07-06T10:38:30.984Z,47.40
2018-07-06T10:40:59.784Z,47.30
2018-07-06T10:43:28.561Z,46.40
2018-07-06T10:45:57.275Z,48.40
2018-07-06T10:48:26.085Z,49.60
2018-07-06T10:50:55.212Z,48.10
2018-07-06T10:53:24.017Z,46.90
2018-07-06T10:55:52.922Z,46.30
2018-07-06T10:58:21.762Z,46.40
2018-07-06T11:00:51.062Z,46.50
2018-07-06T11:03:19.900Z,46.10
2018-07-06T11:05:48.979Z,46.80
2018-07-06T11:08:18.340Z,46.60
2018-07-06T11:10:47.598Z,46.70
2018-07-06T11:13:16.866Z,47.60
2018-07-06T11:15:45.673Z,47.70
2018-07-06T11:18:14.781Z,46.80
2018-07-06T11:20:43.651Z,46.30
2018-07-06T11:23:12.658Z,46.60
2018-07-06T11:25:41.475Z,46.80
2018-07-06T11:28:10.196Z,46.70
2018-07-06T11:30:39.015Z,46.60
2018-07-06T11:33:07.806Z,47.20
2018-07-06T11:35:36.754Z,46.70
2018-07-06T11:38:05.864Z,46.40
2018-07-06T11:40:35.016Z,46.70
2018-07-06T11:43:04.187Z,43.50
2018-07-06T11:45:33.032Z,43.60
2018-07-06T11:48:02.212Z,43.50
2018-07-06T11:50:31.541Z,44.80
2018-07-06T11:53:00.658Z,44.20
2018-07-06T11:55:29.730Z,45.40
2018-07-06T11:57:59.686Z,43.20
2018-07-06T12:00:28.998Z,42.80
2018-07-06T12:02:57.893Z,44.20
2018-07-06T12:05:26.865Z,43.20
2018-07-06T12:07:55.810Z,42.80
2018-07-06T12:10:25.860Z,43.10
2018-07-06T12:13:01.624Z,43.20
2018-07-06T12:15:31.235Z,43.80
2018-07-06T12:18:00.491Z,42.10
2018-07-06T12:20:29.403Z,43.20
2018-07-06T12:22:58.300Z,42.90
2018-07-06T12:25:28.162Z,43.20
2018-07-06T12:27:56.952Z,44.80
2018-07-06T12:30:25.896Z,42.60
2018-07-06T12:32:54.864Z,43.30
2018-07-06T12:35:23.608Z,43.90
2018-07-06T12:37:52.399Z,44.60
2018-07-06T12:40:21.199Z,45.10
2018-07-06T12:42:49.998Z,42.90
2018-07-06T12:45:18.690Z,45.00
2018-07-06T12:47:47.576Z,43.60
2018-07-06T12:50:16.544Z,43.40
2018-07-06T12:52:45.461Z,43.90
2018-07-06T12:55:14.333Z,43.80
2018-07-06T12:57:43.144Z,43.80
2018-07-06T13:00:11.902Z,45.70
2018-07-06T13:02:40.635Z,43.90
2018-07-06T13:05:09.768Z,42.00
2018-07-06T13:07:38.500Z,42.90
2018-07-06T13:10:07.580Z,43.50
2018-07-06T13:12:36.670Z,42.60
2018-07-06T13:15:05.732Z,43.70
2018-07-06T13:17:34.829Z,43.90
2018-07-06T13:20:03.627Z,42.60
2018-07-06T13:22:32.845Z,42.30
2018-07-06T13:25:01.597Z,42.20
2018-07-06T13:27:30.767Z,42.40
2018-07-06T13:29:59.532Z,42.40
2018-07-06T13:32:28.410Z,43.40
2018-07-06T13:34:57.503Z,43.70
2018-07-06T13:37:26.621Z,44.00
2018-07-06T13:39:55.668Z,43.80
2018-07-06T13:42:24.739Z,44.10
2018-07-06T13:44:53.798Z,44.30
2018-07-06T13:47:22.520Z,44.70
2018-07-06T13:49:51.480Z,45.40
2018-07-06T13:52:20.234Z,44.90
2018-07-06T13:54:49.179Z,44.20
2018-07-06T13:57:18.372Z,44.60
2018-07-06T13:59:47.541Z,44.30
2018-07-06T14:02:16.516Z,43.60
2018-07-06T14:04:45.675Z,43.50
2018-07-06T14:07:14.849Z,43.10
2018-07-06T14:09:43.820Z,44.10
2018-07-06T14:12:12.558Z,44.30
2018-07-06T14:14:41.590Z,43.40
2018-07-06T14:17:10.463Z,43.30
2018-07-06T14:22:08.772Z,43.90
2018-07-06T14:24:37.844Z,45.20
2018-07-06T14:27:06.963Z,44.60
2018-07-06T14:29:36.018Z,43.60
2018-07-06T14:32:05.267Z,44.20
2018-07-06T14:34:34.192Z,44.60
2018-07-06T14:37:03.160Z,42.70
2018-07-06T14:39:31.994Z,43.20
2018-07-06T14:42:01.089Z,43.00
2018-07-06T14:44:30.151Z,43.90
2018-07-06T14:46:59.544Z,43.70
2018-07-06T14:49:28.507Z,44.70
2018-07-06T14:51:57.700Z,45.00
2018-07-06T14:54:27.089Z,44.00
2018-07-06T14:56:56.167Z,44.40
2018-07-06T14:59:25.990Z,44.60
2018-07-06T15:04:36.571Z,44.20
2018-07-06T15:07:33.094Z,43.90
2018-07-06T15:10:02.748Z,43.80
2018-07-06T15:12:31.945Z,45.00
2018-07-06T15:15:01.420Z,44.50
2018-07-06T15:17:30.179Z,44.80
2018-07-06T15:19:59.288Z,44.60
2018-07-06T15:22:28.291Z,44.10
2018-07-06T15:24:57.384Z,43.90
2018-07-06T15:27:27.034Z,44.90
2018-07-06T15:29:56.094Z,45.20
2018-07-06T15:32:25.396Z,44.80
2018-07-06T15:34:54.391Z,43.10
2018-07-06T15:37:23.904Z,43.90
2018-07-06T15:39:53.053Z,44.40
2018-07-06T15:42:22.902Z,44.30
2018-07-06T15:44:51.734Z,44.40
2018-07-06T15:47:21.038Z,43.00
2018-07-06T15:49:50.804Z,43.90
2018-07-06T15:52:21.452Z,44.20
2018-07-06T15:54:50.394Z,44.00
2018-07-06T15:57:19.595Z,43.10
2018-07-06T15:59:48.952Z,44.40
2018-07-06T16:02:28.111Z,44.00
2018-07-06T16:04:57.563Z,44.50
2018-07-06T16:07:33.087Z,44.80
2018-07-06T16:10:27.304Z,45.00
2018-07-06T16:21:06.359Z,44.40
2018-07-06T16:23:40.434Z,44.50
2018-07-06T16:26:09.367Z,45.10
2018-07-06T16:28:38.463Z,45.70
2018-07-06T16:31:07.443Z,46.20
2018-07-06T16:33:46.820Z,46.50
2018-07-06T16:36:18.611Z,46.50
2018-07-06T16:38:49.541Z,45.80
2018-07-06T16:41:19.399Z,46.10
2018-07-06T16:46:35.164Z,47.50
2018-07-06T16:49:06.976Z,47.50
2018-07-06T16:51:36.717Z,46.80
2018-07-06T16:54:06.947Z,46.50
2018-07-06T16:56:38.098Z,47.10
2018-07-06T16:59:07.294Z,46.40
2018-07-06T17:01:36.520Z,46.50
2018-07-06T17:04:05.456Z,45.10
2018-07-06T17:06:34.443Z,46.20
2018-07-06T17:09:04.860Z,45.60
2018-07-06T17:11:34.950Z,45.90
2018-07-06T17:14:04.180Z,45.80
2018-07-06T17:16:33.149Z,44.90
2018-07-06T17:19:01.867Z,45.50
2018-07-06T17:21:30.715Z,46.20
2018-07-06T17:23:59.724Z,47.00
2018-07-06T17:26:28.459Z,47.70
2018-07-06T17:28:57.319Z,47.20
2018-07-06T17:31:26.291Z,47.70
2018-07-06T17:33:55.075Z,48.90
2018-07-06T17:36:23.832Z,48.30
2018-07-06T17:38:52.977Z,48.40
2018-07-06T17:41:21.861Z,48.10
2018-07-06T17:43:50.930Z,48.00
2018-07-06T17:46:19.668Z,48.10
2018-07-06T17:48:48.406Z,48.10
2018-07-06T17:51:17.270Z,48.50
2018-07-06T17:53:46.027Z,48.50
2018-07-06T17:56:15.145Z,48.00
2018-07-06T17:58:44.168Z,48.40
2018-07-06T18:01:12.901Z,48.70
2018-07-06T18:03:41.659Z,48.40
2018-07-06T18:06:10.523Z,50.20
2018-07-06T18:08:39.251Z,49.80
2018-07-06T18:11:08.331Z,49.40
2018-07-06T18:13:37.275Z,49.40
2018-07-06T18:16:06.101Z,49.80
2018-07-06T18:18:34.999Z,49.10
2018-07-06T18:21:04.119Z,49.30
2018-07-06T18:23:32.817Z,49.20
2018-07-06T18:28:29.968Z,50.10
2018-07-06T18:30:58.710Z,49.80
2018-07-06T18:33:27.748Z,50.20
2018-07-06T18:35:56.444Z,50.00
2018-07-06T18:38:25.158Z,49.80
2018-07-06T18:40:54.287Z,49.60
2018-07-06T18:43:23.101Z,50.00
2018-07-06T18:45:52.031Z,50.00
2018-07-06T18:48:20.912Z,50.30
2018-07-06T18:50:49.737Z,51.10
2018-07-06T18:53:18.588Z,50.80
2018-07-06T18:55:47.763Z,50.90
2018-07-06T18:58:16.856Z,50.60
2018-07-06T19:03:14.883Z,50.80
2018-07-06T19:05:44.122Z,50.80
2018-07-06T19:10:41.731Z,51.50
2018-07-06T19:13:10.850Z,51.20
2018-07-06T19:15:40.452Z,51.30
2018-07-06T19:18:10.567Z,51.20
2018-07-06T19:20:39.592Z,51.70
2018-07-06T19:23:08.855Z,51.30
2018-07-06T19:25:37.883Z,51.60
2018-07-06T19:28:06.700Z,51.80
2018-07-06T19:30:35.721Z,51.70
2018-07-06T19:33:04.930Z,52.30
2018-07-06T19:35:33.858Z,52.40
2018-07-06T19:38:06.598Z,52.70
2018-07-06T19:40:35.483Z,52.90
2018-07-06T19:43:04.367Z,53.50
2018-07-06T19:45:33.162Z,53.10
2018-07-06T19:48:02.384Z,52.70
2018-07-06T19:50:33.619Z,52.90
2018-07-06T19:53:03.577Z,52.70
2018-07-06T19:55:32.404Z,53.30
2018-07-06T19:58:03.783Z,54.00
